Time;durP1;ratioP1;P1;durP2;ratioP2;P2;SDS_P1;SDS_P2;PMS_P1;PMS_P2;Temp;Humidity;BMP_temperature;BMP_pressure;BME280_temperature;BME280_humidity;BME280_pressure;Samples;Min_cycle;Max_cycle;Signal;HPM_P1;HPM_P2
2022/11/01 00:00:31;;;;;;;14.80;6.63;;;9.40;99.90;10.80;97173.00;;;;5090807;28;20314;-69
2022/11/01 00:03:22;;;;;;;10.13;6.00;;;9.40;99.90;10.80;97176.00;;;;5088726;28;20676;-69
2022/11/01 00:06:10;;;;;;;16.17;8.47;;;9.50;99.90;10.70;97178.00;;;;5089909;28;20214;-69
2022/11/01 00:08:59;;;;;;;15.03;8.60;;;9.50;99.90;10.60;97168.00;;;;5089681;28;20231;-69
2022/11/01 00:11:49;;;;;;;14.30;6.37;;;9.50;99.90;10.30;97171.00;;;;5090543;28;20211;-70
2022/11/01 00:14:38;;;;;;;10.70;6.17;;;9.40;99.90;10.20;97180.00;;;;5090446;28;20218;-70
2022/11/01 00:17:27;;;;;;;9.00;5.60;;;9.40;99.90;10.00;97176.00;;;;5090014;28;20199;-70
2022/11/01 00:20:16;;;;;;;8.77;5.93;;;9.30;99.90;10.20;97168.00;;;;5089708;28;20231;-69
2022/11/01 00:23:05;;;;;;;14.73;6.27;;;9.20;99.90;10.20;97170.00;;;;5088860;28;20236;-69
2022/11/01 00:25:53;;;;;;;11.17;6.90;;;9.20;99.90;10.30;97167.00;;;;5085192;28;20227;-69
2022/11/01 00:28:44;;;;;;;14.87;7.60;;;9.20;99.90;10.50;97163.00;;;;5086228;28;20694;-69
2022/11/01 00:31:32;;;;;;;18.90;8.93;;;9.30;99.90;10.80;97167.00;;;;5090874;28;20196;-69
2022/11/01 00:34:21;;;;;;;21.10;9.00;;;9.30;99.90;10.90;97172.00;;;;5091039;28;20202;-69
2022/11/01 00:37:10;;;;;;;16.00;7.93;;;9.40;99.90;11.00;97155.00;;;;5079405;28;20202;-69
2022/11/01 00:39:59;;;;;;;14.57;9.27;;;9.50;99.90;10.90;97164.00;;;;5085129;28;20198;-69
2022/11/01 00:42:47;;;;;;;18.40;8.80;;;9.60;99.90;11.00;97163.00;;;;5090400;28;20223;-69
2022/11/01 00:45:38;;;;;;;20.87;10.67;;;9.60;99.90;11.10;97165.00;;;;5079461;28;20199;-69
2022/11/01 00:48:27;;;;;;;13.47;8.30;;;9.70;99.90;11.10;97158.00;;;;5089753;28;20199;-69
2022/11/01 00:51:16;;;;;;;10.70;7.17;;;9.70;99.90;10.90;97160.00;;;;5088613;28;20245;-69
2022/11/01 00:54:05;;;;;;;16.10;8.13;;;9.70;99.90;10.80;97161.00;;;;5081323;28;20580;-69
2022/11/01 00:56:53;;;;;;;27.87;8.20;;;9.70;99.90;10.70;97150.00;;;;5084698;28;20202;-69
2022/11/01 00:59:42;;;;;;;22.13;7.53;;;9.60;99.90;10.50;97154.00;;;;5089200;28;20609;-69
2022/11/01 01:02:32;;;;;;;14.47;6.70;;;9.60;99.90;10.50;97149.00;;;;5083086;28;20641;-69
2022/11/01 01:05:21;;;;;;;13.10;6.50;;;9.50;99.90;10.40;97156.00;;;;5080012;28;20555;-69
2022/11/01 01:08:10;;;;;;;13.13;7.00;;;9.40;99.90;10.20;97157.00;;;;5089358;28;20249;-70
2022/11/01 01:10:59;;;;;;;17.93;7.70;;;9.30;99.90;10.10;97148.00;;;;5086029;28;20569;-71
2022/11/01 01:13:47;;;;;;;10.80;6.50;;;9.20;99.90;9.80;97151.00;;;;5083792;28;20219;-69
2022/11/01 01:16:36;;;;;;;16.43;6.90;;;9.10;99.90;10.00;97154.00;;;;5078216;28;20207;-69
2022/11/01 01:19:26;;;;;;;16.13;7.20;;;9.10;99.90;10.10;97148.00;;;;5089142;28;20227;-69
2022/11/01 01:22:15;;;;;;;10.67;7.13;;;9.00;99.90;10.20;97143.00;;;;5089017;28;20276;-69
2022/11/01 01:25:04;;;;;;;12.33;7.07;;;9.00;99.90;10.30;97142.00;;;;5089517;28;20229;-69
2022/11/01 01:27:53;;;;;;;18.63;7.53;;;9.00;99.90;10.20;97142.00;;;;5081156;28;20604;-69
2022/11/01 01:30:42;;;;;;;13.00;6.40;;;9.00;99.90;10.20;97142.00;;;;5087751;28;20191;-69
2022/11/01 01:33:31;;;;;;;9.20;6.63;;;9.00;99.90;10.10;97136.00;;;;5088890;28;20227;-69
2022/11/01 01:36:21;;;;;;;18.27;8.90;;;9.00;99.90;10.10;97139.00;;;;5089630;28;20253;-69
2022/11/01 01:39:10;;;;;;;11.77;6.93;;;9.00;99.90;10.30;97128.00;;;;5089230;28;20253;-69
2022/11/01 01:42:00;;;;;;;16.00;6.13;;;9.00;99.90;10.40;97123.00;;;;5089312;28;20233;-69
2022/11/01 01:45:31;;;;;;;11.63;6.47;;;9.00;99.90;10.30;97132.00;;;;5089715;28;20233;-69
2022/11/01 01:48:25;;;;;;;8.07;6.33;;;9.00;99.90;10.20;97119.00;;;;5089853;28;20252;-69
2022/11/01 01:51:17;;;;;;;11.60;6.50;;;9.10;99.90;10.00;97119.00;;;;5090104;28;20200;-69
2022/11/01 01:54:08;;;;;;;15.10;6.70;;;9.00;99.90;9.80;97122.00;;;;5090403;28;20292;-69
2022/11/01 01:56:56;;;;;;;9.17;6.40;;;8.90;99.90;9.40;97119.00;;;;5089312;28;20199;-69
2022/11/01 01:59:46;;;;;;;7.97;5.47;;;8.80;99.90;9.20;97115.00;;;;5091844;28;20278;-69
2022/11/01 02:02:35;;;;;;;10.37;6.00;;;8.60;99.90;9.30;97120.00;;;;5090071;28;20265;-69
2022/11/01 02:05:33;;;;;;;11.17;6.23;;;8.50;99.90;9.40;97117.00;;;;5077903;28;20203;-70
2022/11/01 02:08:27;;;;;;;10.70;6.40;;;8.40;99.90;9.40;97118.00;;;;5084988;28;20199;-69
2022/11/01 02:11:18;;;;;;;13.30;7.63;;;8.40;99.90;9.60;97118.00;;;;5087066;28;20283;-70
2022/11/01 02:14:07;;;;;;;10.90;6.33;;;8.40;99.90;9.30;97115.00;;;;5088711;28;20195;-69
2022/11/01 02:17:02;;;;;;;11.43;6.10;;;8.40;99.90;9.20;97116.00;;;;5088914;28;20215;-69
2022/11/01 02:20:16;;;;;;;10.27;5.53;;;8.40;99.90;9.20;97107.00;;;;5088688;28;20207;-69
2022/11/01 02:23:37;;;;;;;11.33;6.20;;;8.40;99.90;9.10;97110.00;;;;5089257;28;20262;-69
2022/11/01 02:26:58;;;;;;;12.03;5.00;;;8.30;99.90;8.80;97102.00;;;;5089161;28;20199;-69
2022/11/01 02:30:20;;;;;;;9.83;6.57;;;8.20;99.90;8.90;97105.00;;;;5082916;28;20605;-68
2022/11/01 02:33:20;;;;;;;10.80;6.33;;;8.10;99.90;8.70;97096.00;;;;5092037;28;20234;-68
2022/11/01 02:36:16;;;;;;;16.80;6.63;;;8.00;99.90;8.70;97102.00;;;;5083365;28;20241;-69
2022/11/01 02:39:14;;;;;;;8.57;5.77;;;7.90;99.90;8.70;97097.00;;;;5092800;28;20272;-70
2022/11/01 02:42:10;;;;;;;15.40;5.17;;;7.90;99.90;8.80;97093.00;;;;5091415;28;20219;-69
2022/11/01 02:45:03;;;;;;;10.47;5.77;;;7.90;99.90;8.60;97098.00;;;;5089141;28;20199;-69
2022/11/01 02:47:51;;;;;;;9.03;5.50;;;7.80;99.90;8.80;97103.00;;;;5092048;28;20195;-69
2022/11/01 02:50:45;;;;;;;11.60;5.57;;;7.80;99.90;8.90;97092.00;;;;5092840;28;20290;-69
2022/11/01 02:53:34;;;;;;;14.80;5.77;;;7.80;99.90;8.80;97100.00;;;;5091448;28;20264;-69
2022/11/01 02:56:22;;;;;;;10.17;5.40;;;7.80;99.90;8.80;97103.00;;;;5091583;28;20199;-69
2022/11/01 02:59:19;;;;;;;12.53;5.57;;;7.80;99.90;8.90;97101.00;;;;5091963;28;20233;-69
2022/11/01 03:02:15;;;;;;;8.93;5.13;;;7.80;99.90;8.60;97102.00;;;;5091159;28;20256;-69
2022/11/01 03:05:05;;;;;;;12.50;7.13;;;7.70;99.90;8.70;97106.00;;;;5072940;28;20867;-69
2022/11/01 03:08:03;;;;;;;7.13;5.27;;;7.70;99.90;8.60;97102.00;;;;5090635;28;20286;-70
2022/11/01 03:11:00;;;;;;;10.40;4.80;;;7.70;99.90;8.40;97092.00;;;;5089954;28;20195;-70
2022/11/01 03:13:57;;;;;;;13.17;5.77;;;7.70;99.90;8.70;97100.00;;;;5092283;28;20219;-69
2022/11/01 03:16:56;;;;;;;10.17;5.20;;;7.70;99.90;8.50;97092.00;;;;5092631;28;20611;-69
2022/11/01 03:19:52;;;;;;;17.20;5.97;;;7.60;99.90;8.50;97103.00;;;;5090754;28;20687;-69
2022/11/01 03:22:45;;;;;;;7.50;3.90;;;7.60;99.90;8.20;97096.00;;;;5087039;28;20306;-71
2022/11/01 03:25:40;;;;;;;12.20;5.03;;;7.60;99.90;8.00;97092.00;;;;5087952;28;20245;-69
2022/11/01 03:28:35;;;;;;;9.20;4.70;;;7.50;99.90;8.10;97091.00;;;;5090960;28;20204;-69
2022/11/01 03:31:29;;;;;;;11.67;5.97;;;7.30;99.90;7.90;97093.00;;;;5091773;28;20677;-69
2022/11/01 03:34:20;;;;;;;6.67;5.07;;;7.30;99.90;7.90;97098.00;;;;5090965;28;20446;-69
2022/11/01 03:37:11;;;;;;;18.73;5.27;;;7.20;99.90;8.00;97100.00;;;;5091614;28;20226;-69
2022/11/01 03:40:04;;;;;;;9.43;4.53;;;7.20;99.90;8.30;97104.00;;;;5090535;28;20199;-69
2022/11/01 03:42:59;;;;;;;12.07;5.60;;;7.20;99.90;8.30;97093.00;;;;5090969;28;20242;-69
2022/11/01 03:45:48;;;;;;;12.70;5.73;;;7.30;99.90;8.20;97097.00;;;;5091624;28;20237;-68
2022/11/01 03:48:39;;;;;;;9.77;5.13;;;7.30;99.90;7.60;97091.00;;;;5077625;28;20195;-69
2022/11/01 03:51:28;;;;;;;10.27;5.57;;;7.20;99.90;7.80;97098.00;;;;5092000;28;20731;-68
2022/11/01 03:54:16;;;;;;;9.43;5.53;;;7.10;99.90;7.90;97093.00;;;;5090328;28;20206;-69
2022/11/01 03:57:05;;;;;;;7.17;4.07;;;7.00;99.90;7.40;97087.00;;;;5092454;28;20199;-69
2022/11/01 03:59:55;;;;;;;11.37;4.87;;;6.90;99.90;7.20;97087.00;;;;5089205;28;20225;-69
2022/11/01 04:02:44;;;;;;;11.17;4.63;;;6.70;99.90;7.20;97091.00;;;;5091301;28;20792;-69
2022/11/01 04:05:34;;;;;;;4.97;3.70;;;6.60;99.90;7.30;97090.00;;;;5090974;28;20219;-69
2022/11/01 04:08:23;;;;;;;9.20;4.80;;;6.60;99.90;7.20;97087.00;;;;5089262;28;20203;-69
2022/11/01 04:11:11;;;;;;;11.68;6.60;;;6.40;99.90;7.10;97090.00;;;;5088624;28;21045;-69
2022/11/01 04:23:17;;;;;;;8.43;4.07;;;6.60;99.90;7.60;97076.00;;;;5083552;28;20238;-69
2022/11/01 04:26:07;;;;;;;5.83;3.80;;;6.70;99.90;7.10;97084.00;;;;5080636;28;20689;-70
2022/11/01 04:28:58;;;;;;;7.47;3.30;;;6.60;99.90;6.60;97076.00;;;;5086231;28;20195;-71
2022/11/01 04:31:47;;;;;;;4.67;4.10;;;6.40;99.90;6.70;97081.00;;;;5088908;28;20256;-69
2022/11/01 04:34:42;;;;;;;5.97;5.00;;;6.20;99.90;7.20;97082.00;;;;5090726;28;20304;-69
2022/11/01 04:37:31;;;;;;;5.90;4.30;;;6.20;99.90;7.20;97084.00;;;;5082666;28;20196;-69
2022/11/01 04:40:20;;;;;;;16.90;4.40;;;6.30;99.90;7.20;97072.00;;;;5087044;28;20679;-69
2022/11/01 04:43:09;;;;;;;10.63;4.40;;;6.30;99.90;7.30;97071.00;;;;5090608;28;20243;-69
2022/11/01 04:45:58;;;;;;;7.73;3.70;;;6.40;99.90;6.90;97075.00;;;;5090710;28;20233;-69
2022/11/01 04:48:46;;;;;;;6.77;3.60;;;6.20;99.90;6.50;97069.00;;;;5090309;28;20303;-67
2022/11/01 04:51:39;;;;;;;11.73;4.47;;;6.10;99.90;6.90;97072.00;;;;5083209;28;20196;-68
2022/11/01 04:54:32;;;;;;;11.63;3.70;;;6.10;99.90;6.90;97067.00;;;;5076419;28;20203;-67
2022/11/01 04:57:23;;;;;;;6.40;3.33;;;6.10;99.90;6.70;97052.00;;;;5087482;28;21069;-70
2022/11/01 05:00:14;;;;;;;9.50;3.97;;;6.10;99.90;6.80;97056.00;;;;5076798;28;20231;-69
2022/11/01 05:03:05;;;;;;;5.43;3.93;;;6.00;99.90;7.20;97063.00;;;;5090172;28;20241;-68
2022/11/01 05:05:54;;;;;;;5.70;4.33;;;6.10;99.90;6.50;97064.00;;;;5089520;28;20215;-69
2022/11/01 05:08:44;;;;;;;5.90;3.77;;;6.10;99.90;6.90;97055.00;;;;5089236;28;20666;-68
2022/11/01 05:11:33;;;;;;;6.27;3.40;;;6.10;99.90;6.90;97056.00;;;;5088483;28;20206;-69
2022/11/01 05:14:21;;;;;;;8.40;4.07;;;6.10;99.90;7.10;97054.00;;;;5090181;28;20825;-68
2022/11/01 05:17:10;;;;;;;5.63;3.70;;;6.10;99.90;6.90;97054.00;;;;5089564;28;20195;-68
2022/11/01 05:19:59;;;;;;;5.60;3.13;;;6.60;99.90;7.00;97071.00;;;;5089586;28;20694;-68
2022/11/01 05:22:48;;;;;;;7.43;3.50;;;6.20;99.90;7.00;97063.00;;;;5089362;28;20278;-68
2022/11/01 05:25:38;;;;;;;8.50;4.77;;;6.20;99.90;7.30;97064.00;;;;5079385;28;20356;-69
2022/11/01 05:28:26;;;;;;;6.07;3.53;;;6.40;99.90;7.10;97069.00;;;;5087008;28;20199;-68
2022/11/01 05:31:15;;;;;;;6.37;3.53;;;6.30;99.90;7.00;97065.00;;;;5092144;28;20237;-68
2022/11/01 05:34:04;;;;;;;5.17;3.60;;;6.30;99.90;6.70;97071.00;;;;5095497;28;20223;-68
2022/11/01 05:36:54;;;;;;;9.70;4.40;;;6.20;99.90;6.40;97066.00;;;;5085017;28;20257;-69
2022/11/01 05:39:42;;;;;;;5.13;3.90;;;6.00;99.90;6.50;97069.00;;;;5077519;28;20195;-68
2022/11/01 05:42:32;;;;;;;5.73;2.43;;;5.90;99.90;6.40;97060.00;;;;5085086;28;20580;-72
2022/11/01 05:45:21;;;;;;;4.37;2.83;;;5.80;99.90;6.60;97064.00;;;;5078342;28;20617;-67
2022/11/01 05:48:10;;;;;;;13.43;4.90;;;5.90;99.90;6.80;97064.00;;;;5088143;28;20266;-69
2022/11/01 05:50:59;;;;;;;6.47;3.77;;;5.90;99.90;6.50;97060.00;;;;5088312;28;20192;-68
2022/11/01 05:53:48;;;;;;;8.10;3.67;;;5.90;99.90;6.80;97067.00;;;;5089385;28;20223;-68
2022/11/01 05:56:37;;;;;;;4.13;3.37;;;6.00;99.90;6.30;97058.00;;;;5083805;28;20203;-69
2022/11/01 05:59:27;;;;;;;6.10;3.67;;;5.90;99.90;6.00;97065.00;;;;5091863;28;20210;-68
2022/11/01 06:02:16;;;;;;;5.80;3.47;;;5.80;99.90;6.20;97071.00;;;;5087682;28;20713;-68
2022/11/01 06:05:05;;;;;;;3.93;3.23;;;5.60;99.90;6.50;97069.00;;;;5088128;28;20214;-68
2022/11/01 06:07:54;;;;;;;8.40;4.13;;;5.70;99.90;6.20;97061.00;;;;5089793;28;20218;-68
2022/11/01 06:10:43;;;;;;;10.07;3.97;;;5.70;99.90;6.70;97066.00;;;;5087039;28;20242;-70
2022/11/01 06:13:32;;;;;;;6.43;3.17;;;5.70;99.90;7.10;97075.00;;;;5084712;28;20254;-71
2022/11/01 06:16:24;;;;;;;5.20;3.80;;;5.90;99.90;7.30;97071.00;;;;5084792;28;20284;-69
2022/11/01 06:19:13;;;;;;;6.40;4.87;;;6.10;99.90;7.10;97072.00;;;;5088848;28;20274;-68
2022/11/01 06:22:01;;;;;;;3.47;3.13;;;6.20;99.90;6.90;97077.00;;;;5086824;28;20230;-68
2022/11/01 06:24:50;;;;;;;5.90;3.67;;;6.30;99.90;7.20;97075.00;;;;5078024;28;20226;-69
2022/11/01 06:27:39;;;;;;;13.97;4.30;;;6.30;99.90;7.40;97086.00;;;;5084963;28;20245;-68
2022/11/01 06:30:28;;;;;;;4.43;3.03;;;6.40;99.90;7.00;97086.00;;;;5087559;28;20311;-71
2022/11/01 06:33:18;;;;;;;4.17;3.67;;;6.40;99.90;7.20;97081.00;;;;5088771;28;20286;-68
2022/11/01 06:36:07;;;;;;;9.37;2.63;;;6.50;99.90;7.20;97077.00;;;;5076712;28;20211;-71
2022/11/01 06:38:56;;;;;;;6.73;3.53;;;6.50;99.90;6.90;97082.00;;;;5085875;28;20280;-70
2022/11/01 06:41:45;;;;;;;3.90;3.40;;;6.40;99.90;6.70;97078.00;;;;5089268;28;20199;-70
2022/11/01 06:44:33;;;;;;;7.17;2.97;;;6.30;99.90;6.40;97075.00;;;;5086767;28;20227;-69
2022/11/01 06:47:22;;;;;;;5.10;3.67;;;6.20;99.90;6.30;97066.00;;;;5074227;28;20207;-69
2022/11/01 06:50:12;;;;;;;6.27;3.27;;;6.00;99.90;6.60;97081.00;;;;5084963;28;20727;-68
2022/11/01 06:53:01;;;;;;;4.23;2.73;;;6.00;99.90;7.00;97081.00;;;;5088741;28;20215;-70
2022/11/01 06:55:51;;;;;;;10.63;3.27;;;6.10;99.90;7.30;97081.00;;;;5088546;28;20203;-68
2022/11/01 06:58:39;;;;;;;5.13;4.17;;;6.30;99.90;7.30;97081.00;;;;5087945;28;20260;-68
2022/11/01 07:01:28;;;;;;;5.93;3.93;;;6.40;99.90;7.60;97079.00;;;;5088585;28;20256;-69
2022/11/01 07:04:17;;;;;;;12.33;4.27;;;6.60;99.90;7.40;97085.00;;;;5094861;28;20203;-69
2022/11/01 07:07:07;;;;;;;3.37;3.00;;;6.70;99.90;7.40;97092.00;;;;5088678;28;20191;-69
2022/11/01 07:09:55;;;;;;;3.10;2.40;;;6.70;99.90;7.40;97085.00;;;;5083859;28;20565;-70
2022/11/01 07:12:44;;;;;;;4.23;3.27;;;6.70;99.90;7.30;97084.00;;;;5087926;28;20272;-69
2022/11/01 07:15:34;;;;;;;6.50;3.47;;;6.70;99.90;7.60;97089.00;;;;5086642;28;20207;-68
2022/11/01 07:18:23;;;;;;;4.37;3.27;;;6.70;99.90;7.80;97091.00;;;;5082318;28;20212;-70
2022/11/01 07:21:11;;;;;;;3.73;3.07;;;6.90;99.90;7.80;97091.00;;;;5090105;28;20198;-70
2022/11/01 07:24:01;;;;;;;7.17;3.40;;;7.00;99.90;7.90;97082.00;;;;5088336;28;20216;-71
2022/11/01 07:26:50;;;;;;;5.43;3.73;;;7.00;99.90;8.20;97087.00;;;;5088540;28;20268;-69
2022/11/01 07:29:40;;;;;;;4.73;3.60;;;7.20;99.90;8.40;97089.00;;;;5089684;28;20195;-69
2022/11/01 07:32:31;;;;;;;9.17;3.63;;;7.30;99.90;8.10;97089.00;;;;5097336;22;20225;-87
2022/11/01 07:35:20;;;;;;;4.43;3.23;;;7.40;99.90;8.00;97088.00;;;;5051675;28;20233;-86
2022/11/01 07:38:10;;;;;;;6.80;3.67;;;7.40;99.90;8.50;97088.00;;;;5037022;28;20205;-88
2022/11/01 07:41:03;;;;;;;5.10;3.60;;;7.60;99.90;8.70;97087.00;;;;5032280;28;20284;-85
2022/11/01 07:43:53;;;;;;;7.30;3.73;;;7.60;99.90;8.80;97086.00;;;;5031305;28;20208;-87
2022/11/01 07:46:42;;;;;;;6.30;3.77;;;7.70;99.90;8.80;97092.00;;;;5078654;22;20246;-63
2022/11/01 07:49:30;;;;;;;8.17;3.47;;;7.90;99.90;9.20;97089.00;;;;5067963;28;20242;-64
2022/11/01 07:52:19;;;;;;;5.73;3.43;;;8.00;99.90;9.50;97095.00;;;;5078647;28;20276;-65
2022/11/01 07:55:09;;;;;;;9.33;4.40;;;8.20;99.90;9.30;97092.00;;;;5057979;28;20192;-65
2022/11/01 07:57:59;;;;;;;6.13;3.73;;;8.40;99.90;9.30;97096.00;;;;5058164;28;20207;-65
2022/11/01 08:00:48;;;;;;;8.43;4.20;;;8.40;99.90;9.80;97090.00;;;;5053319;28;20200;-64
2022/11/01 08:03:37;;;;;;;10.53;3.87;;;8.50;99.90;10.00;97084.00;;;;5048239;28;20236;-64
2022/11/01 08:06:26;;;;;;;10.13;4.33;;;8.70;99.90;10.00;97088.00;;;;5056320;28;20257;-64
2022/11/01 08:09:15;;;;;;;5.90;5.27;;;8.80;99.90;10.40;97079.00;;;;5052593;28;20228;-65
2022/11/01 08:12:04;;;;;;;7.40;4.50;;;9.00;99.90;10.80;97077.00;;;;5051775;28;20281;-64
2022/11/01 08:14:54;;;;;;;9.20;4.87;;;9.20;99.90;10.90;97085.00;;;;5057253;28;20213;-66
2022/11/01 08:17:42;;;;;;;12.67;5.07;;;9.50;99.90;10.90;97080.00;;;;5056526;28;20265;-66
2022/11/01 08:20:31;;;;;;;10.27;4.63;;;9.70;99.90;11.20;97088.00;;;;5056020;28;20213;-65
2022/11/01 08:23:21;;;;;;;7.17;4.33;;;9.80;99.90;11.30;97086.00;;;;5061825;28;20784;-66
2022/11/01 08:26:10;;;;;;;9.23;4.53;;;10.00;99.90;11.70;97084.00;;;;5053219;28;20217;-66
2022/11/01 08:28:59;;;;;;;6.80;4.37;;;10.20;99.90;11.70;97086.00;;;;5060485;28;20197;-65
2022/11/01 08:31:49;;;;;;;10.63;4.77;;;10.40;99.90;11.90;97079.00;;;;5054069;28;20288;-65
2022/11/01 08:34:37;;;;;;;7.33;5.03;;;10.50;99.90;12.10;97088.00;;;;5057664;28;20305;-65
2022/11/01 08:37:26;;;;;;;10.73;5.63;;;10.70;99.90;12.50;97077.00;;;;5054657;28;20278;-63
2022/11/01 08:40:15;;;;;;;8.07;4.90;;;10.80;99.90;12.60;97080.00;;;;5056577;28;20247;-65
2022/11/01 08:43:04;;;;;;;7.23;4.70;;;11.00;99.90;13.10;97084.00;;;;5053275;28;20225;-65
2022/11/01 08:45:52;;;;;;;5.40;4.90;;;11.20;99.90;12.60;97072.00;;;;5053650;28;20724;-65
2022/11/01 08:48:43;;;;;;;8.07;4.97;;;11.40;99.90;12.70;97062.00;;;;5050500;28;20200;-64
2022/11/01 08:51:31;;;;;;;8.70;4.73;;;11.40;99.90;13.10;97071.00;;;;5049680;28;20233;-64
2022/11/01 08:54:20;;;;;;;8.43;4.70;;;11.50;99.90;12.90;97061.00;;;;5047606;28;20240;-64
2022/11/01 08:57:09;;;;;;;7.70;4.83;;;11.70;99.90;13.00;97052.00;;;;5054572;28;20196;-64
2022/11/01 08:59:57;;;;;;;9.60;4.53;;;11.70;99.90;13.30;97057.00;;;;5053192;28;20249;-65
2022/11/01 09:02:46;;;;;;;10.23;5.00;;;11.90;99.90;13.60;97055.00;;;;5054941;28;20256;-66
2022/11/01 09:05:37;;;;;;;7.53;5.33;;;12.10;99.90;13.70;97058.00;;;;5047277;28;20203;-65
2022/11/01 09:08:26;;;;;;;12.33;5.30;;;12.20;99.90;13.90;97059.00;;;;5055561;28;20743;-64
2022/11/01 09:11:14;;;;;;;7.30;4.57;;;12.40;99.90;14.40;97060.00;;;;5053382;28;20205;-65
2022/11/01 09:14:03;;;;;;;5.90;4.10;;;12.60;99.90;14.80;97058.00;;;;5054534;28;20220;-65
2022/11/01 09:16:52;;;;;;;5.27;4.23;;;12.80;99.90;15.30;97059.00;;;;5057629;28;20216;-66
2022/11/01 09:19:41;;;;;;;8.67;4.77;;;13.10;99.90;15.70;97057.00;;;;5057189;28;20244;-66
2022/11/01 09:22:31;;;;;;;8.53;4.53;;;13.40;99.90;16.10;97050.00;;;;5049747;28;21406;-65
2022/11/01 09:25:20;;;;;;;5.27;4.30;;;13.80;99.90;16.50;97047.00;;;;5061365;28;20200;-65
2022/11/01 09:28:09;;;;;;;9.90;5.07;;;14.10;99.90;16.70;97048.00;;;;5031769;28;20287;-65
2022/11/01 09:31:01;;;;;;;8.23;4.40;;;14.40;99.90;16.90;97050.00;;;;5044866;28;20286;-64
2022/11/01 09:34:03;;;;;;;8.40;3.73;;;14.80;99.90;17.30;97052.00;;;;5046942;28;20696;-64
2022/11/01 09:36:51;;;;;;;5.90;4.03;;;15.00;99.90;17.50;97049.00;;;;5052891;28;20718;-66
2022/11/01 09:39:41;;;;;;;6.13;3.57;;;15.30;99.90;17.60;97050.00;;;;5044182;28;20799;-66
2022/11/01 09:42:34;;;;;;;7.60;3.70;;;15.50;99.90;18.00;97047.00;;;;5035537;28;20264;-66
2022/11/01 09:45:27;;;;;;;7.33;4.37;;;15.80;99.90;18.10;97048.00;;;;5048673;28;20262;-65
2022/11/01 09:48:17;;;;;;;5.30;4.10;;;16.00;99.90;18.10;97053.00;;;;5046179;28;20257;-65
2022/11/01 09:51:13;;;;;;;5.73;3.63;;;17.50;99.90;18.40;97055.00;;;;5052449;28;20196;-65
2022/11/01 09:54:03;;;;;;;7.37;3.50;;;16.40;99.90;18.80;97043.00;;;;5054174;28;20313;-66
2022/11/01 09:57:06;;;;;;;7.17;3.80;;;16.60;99.90;19.10;97046.00;;;;5048841;28;20204;-71
2022/11/01 10:00:04;;;;;;;4.83;3.57;;;16.90;99.90;19.00;97043.00;;;;5055375;28;20200;-65
2022/11/01 10:03:21;;;;;;;3.97;3.33;;;17.10;99.90;19.70;97052.00;;;;5048895;28;20240;-65
2022/11/01 10:06:17;;;;;;;6.37;3.40;;;17.30;99.90;19.80;97044.00;;;;5039910;28;20724;-66
2022/11/01 10:09:16;;;;;;;6.40;3.17;;;17.60;99.90;20.30;97041.00;;;;5056669;28;20241;-66
2022/11/01 10:12:31;;;;;;;7.00;3.00;;;17.80;99.90;20.50;97039.00;;;;5053368;28;20243;-65
2022/11/01 10:15:41;;;;;;;4.50;3.13;;;18.10;99.90;21.00;97027.00;;;;5050492;28;20208;-66
2022/11/01 10:18:32;;;;;;;5.00;3.00;;;18.80;99.90;21.60;97036.00;;;;5047188;28;20231;-66
2022/11/01 10:21:23;;;;;;;6.33;3.03;;;19.60;99.90;21.60;97030.00;;;;5042123;28;20258;-66
2022/11/01 10:24:22;;;;;;;4.27;3.03;;;20.30;99.90;22.10;97018.00;;;;5052737;28;20224;-66
2022/11/01 10:27:28;;;;;;;3.17;2.87;;;20.60;99.60;21.90;97018.00;;;;5041792;28;20263;-66
2022/11/01 10:30:19;;;;;;;4.23;2.83;;;21.00;95.70;22.70;97025.00;;;;5044402;28;20688;-66
2022/11/01 10:33:24;;;;;;;5.57;3.00;;;21.30;95.40;22.70;97022.00;;;;5046641;28;20270;-65
2022/11/01 10:36:18;;;;;;;5.90;3.47;;;21.50;93.90;23.10;97016.00;;;;5050714;28;20621;-65
2022/11/01 10:39:18;;;;;;;5.37;2.90;;;21.80;92.90;23.30;97031.00;;;;5053056;28;20240;-67
2022/11/01 10:42:29;;;;;;;5.93;3.17;;;22.00;91.10;23.10;97026.00;;;;5038810;28;20203;-66
2022/11/01 10:45:22;;;;;;;9.33;4.50;;;22.20;89.50;23.90;97018.00;;;;5047779;28;20663;-67
2022/11/01 10:48:17;;;;;;;4.40;2.50;;;22.30;90.00;24.40;97012.00;;;;5047229;28;20708;-66
2022/11/01 10:51:08;;;;;;;4.33;2.87;;;22.60;90.30;25.00;97019.00;;;;5063199;28;20203;-66
2022/11/01 10:54:01;;;;;;;5.87;3.00;;;23.00;89.40;25.60;97021.00;;;;5052435;28;20209;-67
2022/11/01 10:56:53;;;;;;;3.30;2.63;;;23.40;89.50;25.60;97020.00;;;;5055899;28;20209;-66
2022/11/01 10:59:46;;;;;;;8.40;2.90;;;23.80;84.30;26.00;97022.00;;;;5051958;28;20248;-67
2022/11/01 11:02:41;;;;;;;8.70;5.10;;;24.10;84.50;24.70;97013.00;;;;5051368;28;20236;-67
2022/11/01 11:05:32;;;;;;;3.60;2.50;;;24.00;77.50;24.80;97016.00;;;;5046871;28;20209;-66
2022/11/01 11:08:24;;;;;;;4.13;2.70;;;23.80;78.40;25.80;97009.00;;;;5051355;28;20257;-66
2022/11/01 11:11:16;;;;;;;4.10;2.93;;;23.90;79.30;25.70;97010.00;;;;5050096;28;20195;-67
2022/11/01 11:14:08;;;;;;;4.10;2.57;;;24.00;77.90;26.30;97013.00;;;;5053647;28;20675;-66
2022/11/01 11:17:00;;;;;;;6.97;2.90;;;24.20;78.00;26.20;97010.00;;;;5058195;28;20210;-67
2022/11/01 11:19:52;;;;;;;3.73;2.83;;;24.30;75.60;26.50;97010.00;;;;5046075;28;20202;-67
2022/11/01 11:22:43;;;;;;;5.57;2.50;;;24.60;74.20;26.70;97011.00;;;;5047308;28;20280;-66
2022/11/01 11:25:36;;;;;;;6.63;2.57;;;24.70;74.50;27.00;97000.00;;;;5052762;28;20226;-66
2022/11/01 11:28:32;;;;;;;6.73;3.10;;;25.00;72.20;27.30;96997.00;;;;5051246;28;20289;-67
2022/11/01 11:31:25;;;;;;;5.63;2.53;;;25.20;71.00;27.30;96998.00;;;;5052263;28;20698;-67
2022/11/01 11:34:24;;;;;;;3.87;2.27;;;25.30;70.90;28.00;97010.00;;;;5051282;28;20236;-67
2022/11/01 11:37:21;;;;;;;2.90;2.33;;;25.60;70.60;27.40;97019.00;;;;5048499;28;20210;-66
2022/11/01 11:40:23;;;;;;;4.00;2.50;;;25.60;68.90;26.70;97018.00;;;;5046398;28;20203;-67
2022/11/01 11:43:24;;;;;;;3.70;2.40;;;25.50;65.80;26.70;97015.00;;;;5043241;28;20238;-67
2022/11/01 11:46:19;;;;;;;5.90;2.63;;;25.20;65.70;27.00;97000.00;;;;5047379;28;20632;-66
2022/11/01 11:49:27;;;;;;;6.60;4.37;;;25.20;67.90;26.00;97011.00;;;;5051787;28;20202;-66
2022/11/01 11:52:19;;;;;;;3.27;2.03;;;24.90;65.00;26.30;97009.00;;;;5050430;28;20277;-66
2022/11/01 11:55:38;;;;;;;4.90;2.50;;;24.70;66.50;25.60;97014.00;;;;5046404;28;20212;-66
2022/11/01 11:58:32;;;;;;;3.87;2.43;;;24.40;67.00;25.50;97011.00;;;;5048343;28;20208;-67
2022/11/01 12:01:24;;;;;;;5.87;2.27;;;24.20;67.70;24.50;97020.00;;;;5053586;28;20290;-67
2022/11/01 12:04:17;;;;;;;7.90;2.67;;;24.00;65.30;23.40;97016.00;;;;5058946;28;20222;-66
2022/11/01 12:07:22;;;;;;;6.03;2.67;;;23.30;70.70;23.10;97019.00;;;;5050480;28;20693;-66
2022/11/01 12:10:31;;;;;;;4.13;2.30;;;22.70;75.00;22.20;97021.00;;;;5037823;28;20685;-66
2022/11/01 12:13:26;;;;;;;6.50;2.87;;;22.00;78.80;21.90;97023.00;;;;5048779;28;20271;-66
2022/11/01 12:16:23;;;;;;;4.77;3.03;;;21.40;82.20;21.50;97024.00;;;;5049563;28;20311;-66
2022/11/01 12:19:26;;;;;;;7.47;3.33;;;20.90;83.80;21.30;97017.00;;;;5060898;28;20587;-66
2022/11/01 12:22:16;;;;;;;3.23;2.40;;;20.50;85.30;21.50;96982.00;;;;5040991;28;20247;-66
2022/11/01 12:25:10;;;;;;;4.30;3.63;;;20.40;86.10;22.80;96983.00;;;;5048059;28;20270;-66
2022/11/01 12:28:02;;;;;;;5.43;3.83;;;20.80;87.00;23.70;96972.00;;;;5049092;28;20358;-66
2022/11/01 12:30:58;;;;;;;5.63;2.57;;;21.30;87.30;25.00;96972.00;;;;5055543;28;20196;-66
2022/11/01 12:33:53;;;;;;;7.93;2.30;;;22.10;86.60;25.90;96997.00;;;;5048109;28;20208;-67
2022/11/01 12:36:48;;;;;;;3.27;2.10;;;22.90;82.10;26.80;96973.00;;;;5049134;28;20736;-66
2022/11/01 12:39:49;;;;;;;5.97;2.03;;;23.70;79.90;26.50;96976.00;;;;5049104;28;20606;-67
2022/11/01 12:42:43;;;;;;;6.53;2.70;;;24.50;76.30;28.30;96987.00;;;;5043154;28;20256;-67
2022/11/01 12:45:44;;;;;;;3.87;2.53;;;25.20;73.90;28.20;96997.00;;;;5049184;28;20282;-67
2022/11/01 12:48:39;;;;;;;5.30;2.50;;;25.80;70.10;28.50;96998.00;;;;5049421;28;20643;-66
2022/11/01 12:51:31;;;;;;;3.10;2.05;;;26.20;67.50;29.30;96989.00;;;;5052174;28;20257;-67
2022/11/01 12:54:26;;;;;;;5.10;2.13;;;26.60;66.30;29.10;97003.00;;;;5048612;28;20255;-67
2022/11/01 12:57:18;;;;;;;3.97;2.05;;;26.90;65.00;29.50;97005.00;;;;5056080;28;20239;-67
2022/11/01 13:00:14;;;;;;;5.25;2.30;;;27.20;63.90;29.30;97003.00;;;;5045929;28;20209;-67